METAR Data
IDs: Format: Raw Decoded Include TAF

Data at: 2100 UTC 26 May 2019

METAR for:KEDC (Austin/Executive Arp, TX, US)
Text:KEDC 262055Z AUTO 16010G16KT 10SM SCT050 33/20 A3002 RMK AO2
Temperature: 33.0°C ( 91°F)
Dewpoint: 20.0°C ( 68°F) [RH = 46%]
Pressure (altimeter):30.02 inches Hg (1016.7 mb)
Winds:from the SSE (160 degrees) at 12 MPH (10 knots; 5.1 m/s) gusting to 18 MPH (16 knots; 8.2 m/s)
Visibility:10 or more sm (16+ km)
Ceiling:at least 12,000 feet AGL
Clouds: scattered clouds at 5000 feet AGL
QC Flag:automated observation with no human augmentation